createdAt,value
2018-06-04T00:00:08.812Z,15.11
2018-06-04T00:01:09.023Z,15.17
2018-06-04T00:02:09.269Z,15.16
2018-06-04T00:03:09.516Z,15.19
2018-06-04T00:04:09.730Z,15.16
2018-06-04T00:05:09.992Z,15.20
2018-06-04T00:06:10.251Z,15.19
2018-06-04T00:07:10.460Z,15.17
2018-06-04T00:08:10.753Z,15.34
2018-06-04T00:09:10.927Z,15.21
2018-06-04T00:10:11.165Z,15.32
2018-06-04T00:11:11.412Z,15.29
2018-06-04T00:12:11.660Z,15.25
2018-06-04T00:13:11.889Z,15.23
2018-06-04T00:14:12.126Z,15.32
2018-06-04T00:15:12.367Z,15.25
2018-06-04T00:16:12.626Z,15.31
2018-06-04T00:17:12.855Z,15.28
2018-06-04T00:18:13.109Z,15.32
2018-06-04T00:19:13.335Z,15.31
2018-06-04T00:20:13.580Z,15.27
2018-06-04T00:21:13.808Z,15.23
2018-06-04T00:22:14.077Z,15.20
2018-06-04T00:23:14.306Z,15.21
2018-06-04T00:24:14.545Z,15.21
2018-06-04T00:25:14.804Z,15.13
2018-06-04T00:26:15.044Z,15.21
2018-06-04T00:27:15.308Z,15.10
2018-06-04T00:28:15.542Z,15.17
2018-06-04T00:29:15.770Z,15.11
2018-06-04T00:30:16.010Z,15.10
2018-06-04T00:31:16.247Z,15.02
2018-06-04T00:32:16.518Z,14.99
2018-06-04T00:33:16.716Z,14.99
2018-06-04T00:34:16.959Z,14.98
2018-06-04T00:35:17.205Z,14.89
2018-06-04T00:36:17.438Z,14.81
2018-06-04T00:37:17.673Z,14.77
2018-06-04T00:38:17.906Z,14.77
2018-06-04T00:39:18.143Z,14.68
2018-06-04T00:40:18.390Z,14.70
2018-06-04T00:41:18.624Z,14.68
2018-06-04T00:42:18.863Z,14.58
2018-06-04T00:43:19.108Z,14.62
2018-06-04T00:44:19.345Z,14.51
2018-06-04T00:45:19.593Z,14.55
2018-06-04T00:46:19.842Z,14.69
2018-06-04T00:47:20.054Z,14.64
2018-06-04T00:48:20.300Z,14.65
2018-06-04T00:49:20.535Z,14.69
2018-06-04T00:50:20.782Z,14.65
2018-06-04T00:51:21.043Z,14.65
2018-06-04T00:52:21.280Z,14.61
2018-06-04T00:53:21.517Z,14.68
2018-06-04T00:54:21.735Z,14.69
2018-06-04T00:55:21.972Z,14.68
2018-06-04T00:56:22.239Z,14.72
2018-06-04T00:57:22.454Z,14.68
2018-06-04T00:58:22.716Z,14.61
2018-06-04T00:59:22.949Z,14.69
2018-06-04T01:00:23.162Z,14.65
2018-06-04T01:01:23.436Z,14.62
2018-06-04T01:02:23.665Z,14.62
2018-06-04T01:03:23.908Z,14.64
2018-06-04T01:04:24.139Z,14.61
2018-06-04T01:05:24.381Z,14.64
2018-06-04T01:06:24.625Z,14.58
2018-06-04T01:07:24.841Z,14.58
2018-06-04T01:08:25.095Z,14.52
2018-06-04T01:09:25.313Z,14.57
2018-06-04T01:10:25.573Z,14.55
2018-06-04T01:11:25.811Z,14.50
2018-06-04T01:12:26.025Z,14.47
2018-06-04T01:13:26.266Z,14.57
2018-06-04T01:14:26.513Z,14.51
2018-06-04T01:15:26.764Z,14.37
2018-06-04T01:16:26.987Z,14.51
2018-06-04T01:17:27.227Z,14.35
2018-06-04T01:18:27.480Z,14.42
2018-06-04T01:19:27.727Z,14.42
2018-06-04T01:20:27.996Z,14.42
2018-06-04T01:21:28.223Z,14.43
2018-06-04T01:22:28.472Z,14.37
2018-06-04T01:23:28.728Z,14.35
2018-06-04T01:24:28.969Z,14.36
2018-06-04T01:25:29.190Z,14.33
2018-06-04T01:26:29.438Z,14.25
2018-06-04T01:27:29.683Z,14.37
2018-06-04T01:28:29.929Z,14.42
2018-06-04T01:29:30.131Z,14.37
2018-06-04T01:30:30.393Z,14.37
2018-06-04T01:31:30.610Z,14.42
2018-06-04T01:32:30.880Z,14.35
2018-06-04T01:33:31.103Z,14.43
2018-06-04T01:34:31.342Z,14.36
2018-06-04T01:35:31.588Z,14.39
2018-06-04T01:36:31.816Z,14.39
2018-06-04T01:37:32.057Z,14.39
2018-06-04T01:38:32.306Z,14.40
2018-06-04T01:39:32.552Z,14.39
2018-06-04T01:40:32.791Z,14.40
2018-06-04T01:41:33.028Z,14.39
2018-06-04T01:42:33.272Z,14.42
2018-06-04T01:43:33.524Z,14.33
2018-06-04T01:44:33.743Z,14.29
2018-06-04T01:45:33.963Z,14.27
2018-06-04T01:46:34.194Z,14.24
2018-06-04T01:47:34.441Z,14.27
2018-06-04T01:48:34.681Z,14.29
2018-06-04T01:49:34.902Z,14.25
2018-06-04T01:50:35.174Z,14.28
2018-06-04T01:51:35.372Z,14.27
2018-06-04T01:52:35.597Z,14.25
2018-06-04T01:53:35.838Z,14.39
2018-06-04T01:54:36.104Z,14.42
2018-06-04T01:55:36.359Z,14.42
2018-06-04T01:56:36.591Z,14.42
2018-06-04T01:57:36.832Z,14.22
2018-06-04T01:58:37.065Z,14.27
2018-06-04T01:59:37.320Z,14.25
2018-06-04T02:00:37.531Z,14.29
2018-06-04T02:01:37.774Z,14.24
2018-06-04T02:02:38.004Z,14.10
2018-06-04T02:03:38.236Z,14.20
2018-06-04T02:04:38.487Z,14.06
2018-06-04T02:05:38.712Z,14.03
2018-06-04T02:06:38.964Z,14.06
2018-06-04T02:07:39.211Z,14.00
2018-06-04T02:08:39.416Z,14.03
2018-06-04T02:09:39.661Z,14.02
2018-06-04T02:10:39.903Z,14.07
2018-06-04T02:11:40.150Z,13.99
2018-06-04T02:12:40.379Z,13.92
2018-06-04T02:13:40.608Z,13.87
2018-06-04T02:14:40.864Z,13.89
2018-06-04T02:15:41.073Z,13.81
2018-06-04T02:16:41.315Z,13.79
2018-06-04T02:17:41.560Z,13.87
2018-06-04T02:18:41.793Z,13.84
2018-06-04T02:19:42.041Z,13.89
2018-06-04T02:20:42.289Z,13.85
2018-06-04T02:21:42.536Z,13.87
2018-06-04T02:22:42.760Z,13.88
2018-06-04T02:23:43.034Z,13.88
2018-06-04T02:24:43.260Z,13.92
2018-06-04T02:25:43.496Z,13.95
2018-06-04T02:26:43.722Z,13.84
2018-06-04T02:27:43.969Z,13.91
2018-06-04T02:28:44.205Z,13.85
2018-06-04T02:29:44.445Z,13.81
2018-06-04T02:30:44.667Z,13.78
2018-06-04T02:31:44.899Z,13.67
2018-06-04T02:32:45.126Z,13.63
2018-06-04T02:33:45.372Z,13.49
2018-06-04T02:34:45.634Z,13.63
2018-06-04T02:35:45.896Z,13.52
2018-06-04T02:36:46.120Z,13.49
2018-06-04T02:37:46.340Z,13.42
2018-06-04T02:38:46.600Z,13.39
2018-06-04T02:39:46.807Z,13.48
2018-06-04T02:40:47.056Z,13.38
2018-06-04T02:41:47.289Z,13.46
2018-06-04T02:42:47.553Z,13.45
2018-06-04T02:43:47.787Z,13.44
2018-06-04T02:44:48.011Z,13.41
2018-06-04T02:45:48.253Z,13.48
2018-06-04T02:46:48.484Z,13.39
2018-06-04T02:47:48.732Z,13.44
2018-06-04T02:48:48.956Z,13.44
2018-06-04T02:49:49.286Z,13.49
2018-06-04T02:50:49.441Z,13.60
2018-06-04T02:51:49.680Z,13.60
2018-06-04T02:52:49.928Z,13.57
2018-06-04T02:53:50.158Z,13.49
2018-06-04T02:54:50.411Z,13.52
2018-06-04T02:55:50.626Z,13.52
2018-06-04T02:56:50.861Z,13.54
2018-06-04T02:57:51.123Z,13.57
2018-06-04T02:58:51.353Z,13.48
2018-06-04T02:59:51.586Z,13.55
2018-06-04T03:00:51.859Z,13.51
2018-06-04T03:01:52.063Z,13.60
2018-06-04T03:02:52.306Z,13.57
2018-06-04T03:03:52.545Z,13.77
2018-06-04T03:04:52.787Z,13.75
2018-06-04T03:05:53.026Z,13.69
2018-06-04T03:06:53.284Z,13.75
2018-06-04T03:07:53.501Z,13.63
2018-06-04T03:08:53.740Z,13.67
2018-06-04T03:09:54.001Z,13.67
2018-06-04T03:10:54.236Z,13.62
2018-06-04T03:11:54.485Z,13.59
2018-06-04T03:12:54.730Z,13.52
2018-06-04T03:13:54.987Z,13.54
2018-06-04T03:14:55.189Z,13.49
2018-06-04T03:15:55.461Z,13.59
2018-06-04T03:16:55.685Z,13.55
2018-06-04T03:17:55.909Z,13.52
2018-06-04T03:18:56.154Z,13.45
2018-06-04T03:19:56.404Z,13.44
2018-06-04T03:20:56.642Z,13.54
2018-06-04T03:21:56.874Z,13.48
2018-06-04T03:22:57.108Z,13.42
2018-06-04T03:23:57.340Z,13.45
2018-06-04T03:24:57.600Z,13.45
2018-06-04T03:25:57.844Z,13.45
2018-06-04T03:26:58.074Z,13.38
2018-06-04T03:27:58.302Z,13.46
2018-06-04T03:28:58.557Z,13.38
2018-06-04T03:29:58.803Z,13.33
2018-06-04T03:30:59.030Z,13.42
2018-06-04T03:31:59.277Z,13.49
2018-06-04T03:32:59.507Z,13.41
2018-06-04T03:33:59.744Z,13.41
2018-06-04T03:34:59.981Z,13.32
2018-06-04T03:36:00.241Z,13.42
2018-06-04T03:37:00.482Z,13.44
2018-06-04T03:38:00.747Z,13.57
2018-06-04T03:39:00.972Z,13.52
2018-06-04T03:40:01.220Z,13.49
2018-06-04T03:41:01.462Z,13.54
2018-06-04T03:42:01.696Z,13.51
2018-06-04T03:43:01.926Z,13.49
2018-06-04T03:44:02.202Z,13.57
2018-06-04T03:45:02.438Z,13.45
2018-06-04T03:46:02.673Z,13.45
2018-06-04T03:47:02.922Z,13.44
2018-06-04T03:48:03.140Z,13.45
2018-06-04T03:49:03.400Z,13.49
2018-06-04T03:50:03.628Z,13.48
2018-06-04T03:51:03.864Z,13.54
2018-06-04T03:52:04.095Z,13.51
2018-06-04T03:53:04.329Z,13.55
2018-06-04T03:54:04.580Z,13.49
2018-06-04T03:55:04.815Z,13.59
2018-06-04T03:56:05.055Z,13.62
2018-06-04T03:57:05.275Z,13.66
2018-06-04T03:58:05.538Z,13.78
2018-06-04T03:59:05.759Z,13.73
2018-06-04T04:00:05.989Z,13.78
2018-06-04T04:01:06.236Z,13.78
2018-06-04T04:02:06.468Z,13.78
2018-06-04T04:03:06.696Z,13.81
2018-06-04T04:04:06.938Z,13.77
2018-06-04T04:05:07.180Z,13.89
2018-06-04T04:06:07.440Z,13.87
2018-06-04T04:07:07.690Z,13.88
2018-06-04T04:08:07.928Z,13.82
2018-06-04T04:09:08.176Z,13.85
2018-06-04T04:10:08.412Z,13.96
2018-06-04T04:11:08.651Z,14.04
2018-06-04T04:12:08.901Z,14.03
2018-06-04T04:13:09.134Z,14.04
2018-06-04T04:14:09.368Z,14.09
2018-06-04T04:15:09.639Z,14.06
2018-06-04T04:16:09.860Z,14.09
2018-06-04T04:17:10.093Z,14.18
2018-06-04T04:18:10.348Z,14.12
2018-06-04T04:19:10.571Z,14.21
2018-06-04T04:20:10.805Z,14.14
2018-06-04T04:21:11.050Z,14.14
2018-06-04T04:22:11.295Z,14.20
2018-06-04T04:23:11.529Z,14.18
2018-06-04T04:24:11.766Z,14.29
2018-06-04T04:25:12.008Z,14.37
2018-06-04T04:26:12.255Z,14.37
2018-06-04T04:27:12.487Z,14.46
2018-06-04T04:28:12.736Z,14.50
2018-06-04T04:29:12.967Z,14.47
2018-06-04T04:30:13.206Z,14.57
2018-06-04T04:31:13.459Z,14.61
2018-06-04T04:32:13.687Z,14.58
2018-06-04T04:33:13.928Z,14.45
2018-06-04T04:34:14.162Z,14.57
2018-06-04T04:35:14.399Z,14.55
2018-06-04T04:36:14.639Z,14.45
2018-06-04T04:37:14.872Z,14.51
2018-06-04T04:38:15.122Z,14.47
2018-06-04T04:39:15.363Z,14.60
2018-06-04T04:40:15.618Z,14.47
2018-06-04T04:41:15.896Z,14.57
2018-06-04T04:42:16.119Z,14.54
2018-06-04T04:43:16.329Z,14.50
2018-06-04T04:44:16.577Z,14.57
2018-06-04T04:45:25.585Z,14.64
2018-06-04T04:46:17.110Z,14.69
2018-06-04T04:47:17.351Z,14.78
2018-06-04T04:48:17.595Z,14.78
2018-06-04T04:49:17.851Z,14.78
2018-06-04T04:50:18.085Z,14.75
2018-06-04T04:51:18.307Z,14.89
2018-06-04T04:52:18.559Z,14.95
2018-06-04T04:53:18.790Z,14.99
2018-06-04T04:54:19.014Z,15.03
2018-06-04T04:55:19.253Z,15.11
2018-06-04T04:56:19.499Z,15.16
2018-06-04T04:57:19.758Z,15.27
2018-06-04T04:58:19.973Z,15.27
2018-06-04T04:59:20.222Z,15.35
2018-06-04T05:00:20.475Z,15.39
2018-06-04T05:01:20.688Z,15.56
2018-06-04T05:02:20.956Z,15.54
2018-06-04T05:03:21.174Z,15.60
2018-06-04T05:04:21.402Z,15.72
2018-06-04T05:05:21.676Z,15.80
2018-06-04T05:06:21.898Z,15.87
2018-06-04T05:07:22.159Z,15.89
2018-06-04T05:08:22.403Z,15.93
2018-06-04T05:09:22.626Z,15.97
2018-06-04T05:10:22.893Z,16.11
2018-06-04T05:11:23.154Z,16.08
2018-06-04T05:12:23.376Z,16.14
2018-06-04T05:13:23.622Z,16.21
2018-06-04T05:14:23.860Z,16.17
2018-06-04T05:15:24.100Z,16.21
2018-06-04T05:16:24.329Z,16.34
2018-06-04T05:17:24.571Z,16.34
2018-06-04T05:18:24.815Z,16.35
2018-06-04T05:19:25.069Z,16.42
2018-06-04T05:20:25.297Z,16.41
2018-06-04T05:21:25.558Z,16.34
2018-06-04T05:22:25.798Z,16.52
2018-06-04T05:23:26.061Z,16.56
2018-06-04T05:24:26.272Z,16.58
2018-06-04T05:25:26.526Z,16.64
2018-06-04T05:26:26.775Z,16.68
2018-06-04T05:27:26.989Z,16.61
2018-06-04T05:28:27.228Z,16.78
2018-06-04T05:29:27.475Z,16.76
2018-06-04T05:30:27.751Z,16.70
2018-06-04T05:31:27.959Z,16.76
2018-06-04T05:32:28.271Z,16.79
2018-06-04T05:33:28.506Z,16.83
2018-06-04T05:34:29.204Z,16.76
2018-06-04T05:35:28.974Z,16.73
2018-06-04T05:36:29.304Z,16.82
2018-06-04T05:37:29.511Z,16.85
2018-06-04T05:38:29.747Z,16.91
2018-06-04T05:39:29.995Z,17.01
2018-06-04T05:40:30.257Z,17.06
2018-06-04T05:41:30.479Z,17.03
2018-06-04T05:42:30.727Z,17.06
2018-06-04T05:43:30.937Z,17.11
2018-06-04T05:44:31.191Z,17.08
2018-06-04T05:45:31.450Z,17.06
2018-06-04T05:46:31.695Z,17.07
2018-06-04T05:47:31.929Z,17.16
2018-06-04T05:48:32.183Z,17.26
2018-06-04T05:49:32.414Z,17.26
2018-06-04T05:50:32.686Z,17.34
2018-06-04T05:51:32.904Z,17.51
2018-06-04T05:52:33.139Z,17.55
2018-06-04T05:53:33.388Z,17.55
2018-06-04T05:54:33.634Z,17.64
2018-06-04T05:55:33.868Z,17.77
2018-06-04T05:56:34.114Z,17.81
2018-06-04T05:57:34.363Z,17.86
2018-06-04T05:58:34.584Z,17.77
2018-06-04T05:59:34.842Z,17.79
2018-06-04T06:00:35.068Z,17.97
2018-06-04T06:01:35.312Z,18.17
2018-06-04T06:02:35.551Z,18.21
2018-06-04T06:03:35.792Z,18.33
2018-06-04T06:04:36.034Z,18.44
2018-06-04T06:05:36.267Z,18.42
2018-06-04T06:06:36.509Z,18.58
2018-06-04T06:07:36.754Z,18.62
2018-06-04T06:08:37.008Z,18.70
2018-06-04T06:09:37.252Z,18.73
2018-06-04T06:10:37.492Z,18.85
2018-06-04T06:11:37.726Z,19.00
2018-06-04T06:12:37.958Z,19.10
2018-06-04T06:13:38.208Z,19.28
2018-06-04T06:14:38.458Z,19.33
2018-06-04T06:15:38.695Z,19.41
2018-06-04T06:16:38.942Z,19.36
2018-06-04T06:17:39.188Z,19.44
2018-06-04T06:18:39.431Z,19.44
2018-06-04T06:19:39.667Z,19.40
2018-06-04T06:20:39.911Z,19.39
2018-06-04T06:21:40.157Z,19.44
2018-06-04T06:22:40.404Z,19.61
2018-06-04T06:23:40.662Z,19.65
2018-06-04T06:24:40.896Z,19.77
2018-06-04T06:25:41.135Z,19.94
2018-06-04T06:26:41.364Z,19.76
2018-06-04T06:27:41.609Z,19.94
2018-06-04T06:28:41.849Z,20.03
2018-06-04T06:29:42.092Z,20.10
2018-06-04T06:30:42.346Z,20.17
2018-06-04T06:31:42.576Z,20.14
2018-06-04T06:32:42.819Z,20.29
2018-06-04T06:33:43.082Z,20.23
2018-06-04T06:34:43.320Z,20.23
2018-06-04T06:35:43.539Z,20.31
2018-06-04T06:36:43.779Z,20.39
2018-06-04T06:37:44.017Z,20.50
2018-06-04T06:38:44.280Z,20.72
2018-06-04T06:39:44.494Z,20.82
2018-06-04T06:40:44.732Z,20.94
2018-06-04T06:41:44.981Z,21.09
2018-06-04T06:42:45.225Z,21.16
2018-06-04T06:43:45.464Z,21.25
2018-06-04T06:44:45.702Z,21.22
2018-06-04T06:45:45.948Z,21.40
2018-06-04T06:46:46.164Z,21.49
2018-06-04T06:47:46.411Z,21.64
2018-06-04T06:48:46.660Z,21.71
2018-06-04T06:49:46.883Z,21.83
2018-06-04T06:50:47.131Z,21.86
2018-06-04T06:51:47.383Z,21.99
2018-06-04T06:52:47.628Z,21.98
2018-06-04T06:53:47.868Z,21.88
2018-06-04T06:54:48.103Z,21.83
2018-06-04T06:55:48.354Z,21.84
2018-06-04T06:56:48.599Z,21.74
2018-06-04T06:57:48.843Z,21.80
2018-06-04T06:58:49.096Z,21.98
2018-06-04T06:59:49.330Z,22.05
2018-06-04T07:00:49.578Z,22.18
2018-06-04T07:01:49.825Z,22.21
2018-06-04T07:02:50.074Z,22.24
2018-06-04T07:03:50.334Z,22.27
2018-06-04T07:04:50.541Z,22.33
2018-06-04T07:05:50.803Z,22.37
2018-06-04T07:06:51.036Z,22.46
2018-06-04T07:07:51.283Z,22.58
2018-06-04T07:08:51.527Z,22.62
2018-06-04T07:09:51.781Z,22.76
2018-06-04T07:10:52.017Z,22.85
2018-06-04T07:11:52.266Z,22.94
2018-06-04T07:12:52.499Z,22.97
2018-06-04T07:13:52.753Z,23.16
2018-06-04T07:14:52.990Z,23.17
2018-06-04T07:15:53.243Z,23.16
2018-06-04T07:16:53.509Z,23.32
2018-06-04T07:17:53.755Z,23.54
2018-06-04T07:18:53.995Z,24.20
2018-06-04T07:19:54.228Z,24.87
2018-06-04T07:20:54.468Z,25.67
2018-06-04T07:21:54.719Z,26.76
2018-06-04T07:22:54.969Z,27.40
2018-06-04T07:23:55.208Z,27.67
2018-06-04T07:24:55.453Z,28.02
2018-06-04T07:25:55.706Z,28.37
2018-06-04T07:26:55.952Z,28.78
2018-06-04T07:27:56.204Z,28.51
2018-06-04T07:28:56.453Z,28.95
2018-06-04T07:29:56.684Z,29.36
2018-06-04T07:30:56.932Z,29.74
2018-06-04T07:31:57.184Z,30.31
2018-06-04T07:32:57.426Z,30.46
2018-06-04T07:33:57.689Z,30.24
2018-06-04T07:34:57.972Z,30.58
2018-06-04T07:35:58.172Z,30.60
2018-06-04T07:36:58.425Z,30.80
2018-06-04T07:37:58.677Z,31.20
2018-06-04T07:38:58.929Z,31.12
2018-06-04T07:39:59.179Z,31.12
2018-06-04T07:40:59.445Z,31.16
2018-06-04T07:41:59.688Z,31.48
2018-06-04T07:42:59.935Z,31.61
2018-06-04T07:44:00.193Z,31.68
2018-06-04T07:45:00.432Z,31.68
2018-06-04T07:46:00.681Z,31.56
2018-06-04T07:47:00.944Z,31.43
2018-06-04T07:48:01.200Z,31.72
2018-06-04T07:49:01.449Z,31.75
2018-06-04T07:50:01.704Z,31.51
2018-06-04T07:51:01.959Z,31.89
2018-06-04T07:52:02.211Z,31.65
2018-06-04T07:53:02.465Z,32.00
2018-06-04T07:54:02.719Z,32.35
2018-06-04T07:55:02.963Z,32.07
2018-06-04T07:56:03.237Z,32.37
2018-06-04T07:57:03.481Z,32.59
2018-06-04T07:58:03.733Z,32.87
2018-06-04T07:59:03.988Z,32.70
2018-06-04T08:00:04.247Z,32.88
2018-06-04T08:01:04.501Z,32.10
2018-06-04T08:02:04.760Z,32.59
2018-06-04T08:03:05.010Z,32.62
2018-06-04T08:04:05.267Z,32.28
2018-06-04T08:05:05.523Z,32.03
2018-06-04T08:06:05.779Z,32.62
2018-06-04T08:07:06.028Z,32.84
2018-06-04T08:08:06.280Z,33.19
2018-06-04T08:09:06.543Z,33.72
2018-06-04T08:10:06.884Z,33.37
2018-06-04T08:11:07.051Z,33.18
2018-06-04T08:12:07.293Z,32.70
2018-06-04T08:13:07.550Z,33.04
2018-06-04T08:14:07.807Z,33.16
2018-06-04T08:15:08.063Z,33.47
2018-06-04T08:16:08.320Z,33.41
2018-06-04T08:17:08.575Z,33.54
2018-06-04T08:18:08.831Z,33.68
2018-06-04T08:19:09.089Z,34.27
2018-06-04T08:20:09.346Z,33.00
2018-06-04T08:21:09.599Z,32.59
2018-06-04T08:22:09.859Z,32.97
2018-06-04T08:23:10.113Z,33.38
2018-06-04T08:24:10.384Z,33.87
2018-06-04T08:25:10.626Z,33.93
2018-06-04T08:26:10.888Z,33.76
2018-06-04T08:27:11.175Z,34.17
2018-06-04T08:28:11.392Z,34.49
2018-06-04T08:29:11.659Z,34.52
2018-06-04T08:30:11.906Z,34.34
2018-06-04T08:31:12.168Z,34.42
2018-06-04T08:32:12.420Z,34.78
2018-06-04T08:33:12.667Z,34.97
2018-06-04T08:34:12.926Z,34.89
2018-06-04T08:35:13.182Z,35.02
2018-06-04T08:36:13.442Z,34.87
2018-06-04T08:37:13.698Z,34.92
2018-06-04T08:38:13.955Z,34.99
2018-06-04T08:39:14.222Z,34.94
2018-06-04T08:40:14.527Z,34.96
2018-06-04T08:41:14.728Z,34.61
2018-06-04T08:42:14.987Z,34.59
2018-06-04T08:43:15.246Z,34.06
2018-06-04T08:44:15.504Z,33.90
2018-06-04T08:45:15.748Z,33.81
2018-06-04T08:46:15.998Z,33.90
2018-06-04T08:47:16.277Z,33.82
2018-06-04T08:48:16.504Z,34.31
2018-06-04T08:49:16.760Z,34.87
2018-06-04T08:50:17.033Z,34.96
2018-06-04T08:51:17.277Z,35.10
2018-06-04T08:52:17.514Z,35.29
2018-06-04T08:53:17.790Z,35.50
2018-06-04T08:54:18.043Z,34.72
2018-06-04T08:55:18.305Z,34.25
2018-06-04T08:56:18.614Z,34.58
2018-06-04T08:57:18.811Z,34.82
2018-06-04T08:58:19.069Z,34.52
2018-06-04T08:59:19.322Z,34.40
2018-06-04T09:00:19.585Z,34.34
2018-06-04T09:01:19.840Z,34.73
2018-06-04T09:02:20.103Z,34.94
2018-06-04T09:03:20.359Z,34.39
2018-06-04T09:04:20.609Z,34.85
2018-06-04T09:05:20.864Z,35.41
2018-06-04T09:06:21.126Z,35.72
2018-06-04T09:07:21.386Z,36.19
2018-06-04T09:08:21.644Z,36.09
2018-06-04T09:09:21.901Z,35.31
2018-06-04T09:10:22.159Z,34.35
2018-06-04T09:11:22.421Z,34.59
2018-06-04T09:12:22.674Z,34.05
2018-06-04T09:13:22.933Z,34.58
2018-06-04T09:14:23.191Z,34.21
2018-06-04T09:15:23.459Z,34.62
2018-06-04T09:16:23.711Z,34.81
2018-06-04T09:17:23.966Z,34.64
2018-06-04T09:18:24.225Z,35.18
2018-06-04T09:19:24.482Z,35.66
2018-06-04T09:20:24.742Z,35.81
2018-06-04T09:21:24.997Z,35.52
2018-06-04T09:22:25.256Z,35.66
2018-06-04T09:23:25.520Z,35.71
2018-06-04T09:24:25.772Z,35.36
2018-06-04T09:25:26.031Z,34.22
2018-06-04T09:26:26.289Z,34.53
2018-06-04T09:27:26.548Z,34.73
2018-06-04T09:28:26.811Z,35.10
2018-06-04T09:29:27.066Z,35.14
2018-06-04T09:30:27.325Z,34.73
2018-06-04T09:31:27.575Z,35.06
2018-06-04T09:32:27.833Z,35.59
2018-06-04T09:33:28.095Z,36.08
2018-06-04T09:34:28.356Z,36.00
2018-06-04T09:35:28.615Z,35.89
2018-06-04T09:36:28.881Z,36.09
2018-06-04T09:37:29.132Z,36.22
2018-06-04T09:38:29.390Z,36.38
2018-06-04T09:39:29.654Z,36.88
2018-06-04T09:40:29.911Z,37.18
2018-06-04T09:41:30.171Z,37.20
2018-06-04T09:42:30.432Z,37.10
2018-06-04T09:43:30.690Z,36.84
2018-06-04T09:44:30.948Z,36.28
2018-06-04T09:45:31.209Z,35.71
2018-06-04T09:46:31.474Z,33.71
2018-06-04T09:47:31.782Z,33.51
2018-06-04T09:48:31.984Z,32.70
2018-06-04T09:49:32.242Z,33.51
2018-06-04T09:50:32.502Z,34.62
2018-06-04T09:51:32.761Z,35.48
2018-06-04T09:52:33.020Z,36.35
2018-06-04T09:53:33.269Z,36.75
2018-06-04T09:54:33.528Z,37.20
2018-06-04T09:55:33.783Z,37.51
2018-06-04T09:56:34.041Z,36.94
2018-06-04T09:57:34.300Z,36.57
2018-06-04T09:58:34.558Z,36.38
2018-06-04T09:59:34.826Z,35.25
2018-06-04T10:00:35.080Z,35.44
2018-06-04T10:01:35.341Z,35.60
2018-06-04T10:02:35.601Z,36.08
2018-06-04T10:03:35.859Z,36.17
2018-06-04T10:04:36.159Z,37.05
2018-06-04T10:05:36.382Z,37.40
2018-06-04T10:06:36.641Z,37.89
2018-06-04T10:07:36.901Z,38.18
2018-06-04T10:08:37.158Z,37.66
2018-06-04T10:09:37.418Z,37.97
2018-06-04T10:10:37.678Z,38.26
2018-06-04T10:11:37.939Z,37.84
2018-06-04T10:12:38.204Z,37.94
2018-06-04T10:13:38.461Z,37.91
2018-06-04T10:14:38.719Z,37.50
2018-06-04T10:15:38.979Z,36.71
2018-06-04T10:16:39.241Z,36.98
2018-06-04T10:17:39.500Z,37.29
2018-06-04T10:18:39.762Z,35.21
2018-06-04T10:19:40.024Z,34.72
2018-06-04T10:20:40.283Z,32.19
2018-06-04T10:21:40.539Z,31.43
2018-06-04T10:22:40.797Z,32.21
2018-06-04T10:23:41.108Z,32.51
2018-06-04T10:24:41.321Z,31.73
2018-06-04T10:25:41.590Z,32.59
2018-06-04T10:26:41.840Z,32.96
2018-06-04T10:27:42.099Z,33.87
2018-06-04T10:28:42.359Z,34.70
2018-06-04T10:29:42.624Z,35.36
2018-06-04T10:30:42.879Z,35.48
2018-06-04T10:31:43.142Z,35.11
2018-06-04T10:32:43.400Z,35.68
2018-06-04T10:33:43.719Z,34.62
2018-06-04T10:34:43.920Z,34.19
2018-06-04T10:35:44.181Z,34.61
2018-06-04T10:36:44.440Z,35.48
2018-06-04T10:37:44.705Z,35.07
2018-06-04T10:38:44.959Z,34.19
2018-06-04T10:39:45.220Z,33.71
2018-06-04T10:40:45.483Z,33.63
2018-06-04T10:41:45.734Z,32.99
2018-06-04T10:42:46.060Z,32.88
2018-06-04T10:43:46.340Z,32.29
2018-06-04T10:44:46.600Z,31.58
2018-06-04T10:45:46.857Z,31.38
2018-06-04T10:46:47.113Z,31.54
2018-06-04T10:47:47.370Z,31.68
2018-06-04T10:48:47.628Z,33.35
2018-06-04T10:49:47.886Z,34.15
2018-06-04T10:50:48.144Z,35.06
2018-06-04T10:51:48.402Z,34.65
2018-06-04T10:52:48.648Z,34.15
2018-06-04T10:53:48.920Z,34.81
2018-06-04T10:54:49.177Z,35.48
2018-06-04T10:55:49.437Z,35.97
2018-06-04T10:56:49.692Z,36.12
2018-06-04T10:57:49.949Z,35.94
2018-06-04T10:58:50.209Z,35.99
2018-06-04T10:59:50.468Z,36.12
2018-06-04T11:00:50.728Z,36.07
2018-06-04T11:01:50.998Z,35.94
2018-06-04T11:02:51.245Z,36.54
2018-06-04T11:03:51.505Z,36.57
2018-06-04T11:04:51.782Z,37.15
2018-06-04T11:05:52.018Z,37.03
2018-06-04T11:06:52.265Z,37.47
2018-06-04T11:07:52.519Z,37.37
2018-06-04T11:08:52.778Z,37.59
2018-06-04T11:09:53.039Z,37.10
2018-06-04T11:10:53.287Z,37.17
2018-06-04T11:11:53.547Z,37.70
2018-06-04T11:12:53.807Z,38.18
2018-06-04T11:13:54.083Z,38.75
2018-06-04T11:14:54.335Z,38.69
2018-06-04T11:15:54.573Z,38.34
2018-06-04T11:16:54.842Z,38.22
2018-06-04T11:17:55.101Z,38.68
2018-06-04T11:18:55.365Z,38.96
2018-06-04T11:19:55.616Z,39.51
2018-06-04T11:20:55.879Z,38.69
2018-06-04T11:21:56.142Z,39.01
2018-06-04T11:22:56.405Z,38.41
2018-06-04T11:23:56.662Z,38.40
2018-06-04T11:24:56.922Z,38.63
2018-06-04T11:25:57.798Z,38.53
2018-06-04T11:26:57.568Z,39.17
2018-06-04T11:27:57.824Z,39.23
2018-06-04T11:28:58.081Z,39.07
2018-06-04T11:29:58.329Z,38.78
2018-06-04T11:30:58.590Z,38.61
2018-06-04T11:31:58.843Z,38.13
2018-06-04T11:32:59.103Z,37.79
2018-06-04T11:33:59.362Z,38.37
2018-06-04T11:34:59.620Z,38.53
2018-06-04T11:35:59.874Z,38.41
2018-06-04T11:37:00.136Z,38.75
2018-06-04T11:38:00.397Z,38.81
2018-06-04T11:39:00.662Z,38.78
2018-06-04T11:40:00.922Z,38.61
2018-06-04T11:41:01.187Z,37.50
2018-06-04T11:42:01.444Z,37.62
2018-06-04T11:43:01.709Z,36.60
2018-06-04T11:44:01.967Z,35.92
2018-06-04T11:45:02.237Z,35.77
2018-06-04T11:46:02.497Z,35.66
2018-06-04T11:47:02.759Z,35.92
2018-06-04T11:48:03.024Z,36.28
2018-06-04T11:49:03.279Z,36.31
2018-06-04T11:50:03.545Z,37.03
2018-06-04T11:51:03.814Z,36.84
2018-06-04T11:52:04.068Z,35.58
2018-06-04T11:53:04.331Z,34.16
2018-06-04T11:54:04.582Z,34.94
2018-06-04T11:55:04.847Z,33.57
2018-06-04T11:56:05.101Z,33.53
2018-06-04T11:57:05.367Z,34.72
2018-06-04T11:58:05.628Z,34.56
2018-06-04T11:59:05.889Z,33.49
2018-06-04T12:00:06.151Z,32.48
2018-06-04T12:01:06.414Z,31.70
2018-06-04T12:02:06.673Z,31.99
2018-06-04T12:03:06.932Z,31.92
2018-06-04T12:04:07.193Z,33.03
2018-06-04T12:05:07.496Z,33.19
2018-06-04T12:06:07.711Z,33.23
2018-06-04T12:07:07.975Z,34.47
2018-06-04T12:08:08.234Z,35.31
2018-06-04T12:09:08.490Z,35.75
2018-06-04T12:10:08.744Z,36.43
2018-06-04T12:11:09.007Z,36.87
2018-06-04T12:12:09.266Z,36.90
2018-06-04T12:13:09.525Z,36.25
2018-06-04T12:14:09.776Z,35.94
2018-06-04T12:15:10.023Z,36.17
2018-06-04T12:16:10.281Z,35.92
2018-06-04T12:17:10.543Z,34.80
2018-06-04T12:18:10.808Z,34.32
2018-06-04T12:19:11.063Z,33.97
2018-06-04T12:20:11.334Z,33.66
2018-06-04T12:21:11.581Z,33.42
2018-06-04T12:22:11.844Z,33.45
2018-06-04T12:23:12.091Z,33.12
2018-06-04T12:24:12.349Z,32.55
2018-06-04T12:25:12.610Z,31.68
2018-06-04T12:26:12.865Z,31.09
2018-06-04T12:27:13.121Z,30.98
2018-06-04T12:28:13.392Z,31.10
2018-06-04T12:29:13.635Z,31.41
2018-06-04T12:30:13.891Z,33.47
2018-06-04T12:31:14.151Z,34.28
2018-06-04T12:32:14.410Z,34.69
2018-06-04T12:33:14.666Z,35.84
2018-06-04T12:34:14.922Z,36.80
2018-06-04T12:35:15.179Z,36.72
2018-06-04T12:36:15.438Z,37.29
2018-06-04T12:37:15.693Z,37.24
2018-06-04T12:38:15.950Z,36.94
2018-06-04T12:39:16.212Z,36.46
2018-06-04T12:40:16.469Z,36.01
2018-06-04T12:41:16.726Z,36.00
2018-06-04T12:42:16.986Z,35.99
2018-06-04T12:43:17.244Z,36.27
2018-06-04T12:44:17.502Z,36.53
2018-06-04T12:45:17.766Z,36.80
2018-06-04T12:46:18.026Z,37.25
2018-06-04T12:47:18.281Z,37.82
2018-06-04T12:48:18.538Z,38.35
2018-06-04T12:49:18.802Z,38.60
2018-06-04T12:50:19.057Z,38.99
2018-06-04T12:51:19.317Z,39.11
2018-06-04T12:52:19.580Z,38.68
2018-06-04T12:53:19.840Z,38.78
2018-06-04T12:54:20.096Z,38.61
2018-06-04T12:55:20.362Z,38.75